Bonners Ferry, ID

12:41 PM PST on December 17, 2014 (GMT -0800)
Paradise Valley | Change Station
CLOSE
Current Station
Personal Weather Station
Location: Bonner Ferry, ID
Elevation: 2300 ft
Nearby Weather Stations

Elev 2300 ft 48.67 °N, 116.30 °W | Updated 14 seconds ago

Scattered Clouds
Scattered Clouds
33.6 °F
Feels Like 34 °F
N
0.7
Wind Variable Wind from North
Gusts 1.6 mph

Today
High -- | Low -- °F
--% Chance of Precip.
Yesterday
High -- | Low -- °F
Precip. -- in
7:32 AM 3:50 PM
Waning Crescent, 20% visible
Pressure 29.95 in
Visibility 10.0 miles
Clouds Scattered Clouds 4800 ft
Windchill 34 °F
Dew Point 29 °F
Humidity 82%
Rainfall 0.00 in
Snow Depth Not available.
UV 1 out of 12
Pollen .10 out of 12
Air Quality Not available.
Flu Activity Not available.
METAR K65S 172035Z AUTO 00000KT 10SM SCT048 00/M01 A2995 RMK AO2

More Conditions Fewer Conditions

Pressure 29.95 in
Visibility 10.0 miles
Clouds Scattered Clouds 4800 ft
Windchill 34 °F
Dew Point 29 °F
Humidity 82%
Rainfall 0.00 in
Snow Depth Not available.
UV 1 out of 12
Pollen .10 out of 12
Air Quality Not available.
Flu Activity Not available.
METAR K65S 172035Z AUTO 00000KT 10SM SCT048 00/M01 A2995 RMK AO2

More Conditions Fewer Conditions

10-Day Weather Forecast

Almanac

Astronomy

Dec. 17, 2014 Rise Set
Actual Time
Civil Twilight
Nautical Twilight
Astronomical Twilight
Moon
Length of Visible Light
Length of Day
Tomorrow will be .
, % of the Moon is Illuminated

Today's Extremes

State Highs State Lows

Community

WunderPhotos

Upload Photos

1,778,803 photos uploaded!

WunderBlogs® & News

Nearby

Air Quality

  Air Quality AQ Index Pollutant
Not available.

Snow Depth

Station Depth Elevation

Earthquake Activity

City Distance Mag. Time & Date
Minimum magnitude displayed is 2.5.

Coastal Water Temperatures

Place Temperature

Nearby Weather Stations